Wetterdaten: Woche 24.08.09 - 30.08.09 (KW35)
Datum Zeit Temp. A. Feuchte A. Luftdruck Regen Wind Richtung Taupunkt Windchill Windben
24.08.2009 00:00 14,1 C 82 % 1020,5 hPa 0,0 l/m 0,1 km/h N 11,1 C 14,1 C 2,8 km/h
24.08.2009 01:00 13,4 C 84 % 1020,2 hPa 0,0 l/m 0,1 km/h N 10,8 C 13,4 C 2,0 km/h
24.08.2009 02:00 13,0 C 85 % 1019,6 hPa 0,0 l/m 0,1 km/h N 10,6 C 13,0 C 2,0 km/h
24.08.2009 03:00 13,0 C 85 % 1019,2 hPa 0,0 l/m 0,1 km/h N 10,5 C 13,0 C 1,6 km/h
24.08.2009 04:00 12,9 C 85 % 1018,6 hPa 0,0 l/m 0,1 km/h N 10,4 C 12,9 C 1,6 km/h
24.08.2009 05:00 12,8 C 86 % 1018,3 hPa 0,0 l/m 0,1 km/h N 10,4 C 12,8 C 1,6 km/h
24.08.2009 06:00 13,3 C 84 % 1018,1 hPa 0,0 l/m 0,1 km/h N 10,7 C 13,3 C 0,8 km/h
24.08.2009 07:00 14,5 C 82 % 1018,1 hPa 0,0 l/m 0,0 km/h N 11,4 C 14,5 C 1,2 km/h
24.08.2009 08:00 15,8 C 78 % 1018,1 hPa 0,0 l/m 0,0 km/h N 11,9 C 15,8 C 1,2 km/h
24.08.2009 09:00 17,0 C 77 % 1017,9 hPa 0,0 l/m 0,5 km/h N 12,9 C 17,0 C 4,8 km/h
24.08.2009 10:00 18,6 C 75 % 1017,5 hPa 0,0 l/m 0,9 km/h S 14,1 C 18,6 C 7,6 km/h
24.08.2009 11:00 20,9 C 69 % 1016,9 hPa 0,0 l/m 1,4 km/h S 15,0 C 20,9 C 10,1 km/h
24.08.2009 12:00 22,8 C 63 % 1016,2 hPa 0,0 l/m 2,3 km/h O 15,3 C 22,8 C 10,5 km/h
24.08.2009 13:00 23,5 C 57 % 1015,7 hPa 0,0 l/m 2,3 km/h O-SO 14,5 C 23,5 C 8,0 km/h
24.08.2009 14:00 24,0 C 55 % 1015,3 hPa 0,0 l/m 2,9 km/h N-NO 14,3 C 24,0 C 8,9 km/h
24.08.2009 15:00 24,6 C 51 % 1014,7 hPa 0,0 l/m 2,9 km/h O 13,6 C 24,6 C 16,1 km/h
24.08.2009 16:00 25,4 C 46 % 1014,3 hPa 0,0 l/m 2,5 km/h O-NO 12,7 C 25,4 C 12,1 km/h
24.08.2009 17:00 25,0 C 46 % 1014,0 hPa 0,0 l/m 2,2 km/h O-SO 12,5 C 25,0 C 10,9 km/h
24.08.2009 18:00 24,3 C 48 % 1013,7 hPa 0,0 l/m 1,7 km/h NO 12,4 C 24,3 C 10,9 km/h
24.08.2009 19:00 22,7 C 54 % 1013,7 hPa 0,0 l/m 0,4 km/h N 12,7 C 22,7 C 3,2 km/h
24.08.2009 20:00 20,9 C 61 % 1014,1 hPa 0,0 l/m 0,1 km/h N 13,0 C 20,9 C 1,6 km/h
24.08.2009 21:00 19,8 C 65 % 1014,3 hPa 0,0 l/m 0,2 km/h N 12,9 C 19,8 C 2,8 km/h
24.08.2009 22:00 18,9 C 69 % 1014,1 hPa 0,0 l/m 0,1 km/h N 13,1 C 18,9 C 3,2 km/h
24.08.2009 23:00 18,1 C 73 % 1013,8 hPa 0,0 l/m 0,2 km/h N 13,3 C 18,1 C 4,0 km/h
25.08.2009 00:00 16,8 C 78 % 1013,4 hPa 0,0 l/m 0,1 km/h N 13,0 C 16,8 C 2,8 km/h
25.08.2009 01:00 15,8 C 83 % 1013,2 hPa 0,0 l/m 0,0 km/h N 12,8 C 15,8 C 1,2 km/h
25.08.2009 02:00 15,1 C 86 % 1012,9 hPa 0,0 l/m 0,0 km/h N 12,7 C 15,1 C 0,8 km/h
25.08.2009 03:00 13,7 C 88 % 1012,5 hPa 0,0 l/m 0,0 km/h N 11,8 C 13,7 C 0,4 km/h
25.08.2009 04:00 12,6 C 91 % 1012,3 hPa 0,0 l/m 0,0 km/h N 11,2 C 12,6 C 0,0 km/h
25.08.2009 05:00 12,1 C 92 % 1012,3 hPa 0,0 l/m 0,0 km/h N 10,8 C 12,1 C 0,0 km/h
25.08.2009 06:00 12,0 C 92 % 1012,7 hPa 0,0 l/m 0,0 km/h N 10,7 C 12,0 C 0,0 km/h
25.08.2009 07:00 13,8 C 92 % 1012,9 hPa 0,0 l/m 0,0 km/h N 12,5 C 13,8 C 0,0 km/h
25.08.2009 08:00 17,1 C 83 % 1013,0 hPa 0,0 l/m 0,0 km/h N 14,1 C 17,1 C 0,8 km/h
25.08.2009 09:00 20,3 C 69 % 1012,9 hPa 0,0 l/m 0,9 km/h S 14,4 C 20,3 C 7,2 km/h
25.08.2009 10:00 23,4 C 57 % 1012,9 hPa 0,0 l/m 2,1 km/h O-SO 14,3 C 23,4 C 11,7 km/h
25.08.2009 11:00 25,3 C 52 % 1012,9 hPa 0,0 l/m 2,1 km/h O-SO 14,6 C 25,3 C 11,3 km/h
25.08.2009 12:00 26,4 C 49 % 1012,9 hPa 0,0 l/m 2,5 km/h O 14,6 C 26,4 C 12,9 km/h
25.08.2009 13:00 27,1 C 49 % 1012,9 hPa 0,0 l/m 2,2 km/h NO 15,3 C 27,1 C 8,0 km/h
25.08.2009 14:00 27,5 C 46 % 1012,9 hPa 0,0 l/m 2,2 km/h NO 14,8 C 27,5 C 11,7 km/h
25.08.2009 15:00 28,1 C 45 % 1012,9 hPa 0,0 l/m 3,1 km/h N-NO 14,9 C 28,1 C 15,7 km/h
25.08.2009 16:00 28,2 C 40 % 1012,9 hPa 0,0 l/m 2,5 km/h N-NO 13,4 C 28,2 C 10,9 km/h
25.08.2009 17:00 27,9 C 41 % 1012,8 hPa 0,0 l/m 1,8 km/h O-SO 13,5 C 27,9 C 8,4 km/h
25.08.2009 18:00 26,7 C 45 % 1012,7 hPa 0,0 l/m 1,9 km/h N-NO 13,8 C 26,7 C 8,9 km/h
25.08.2009 19:00 25,1 C 50 % 1012,5 hPa 0,0 l/m 1,0 km/h N 13,9 C 25,1 C 8,4 km/h
25.08.2009 20:00 23,5 C 54 % 1012,8 hPa 0,0 l/m 0,5 km/h N 13,7 C 23,5 C 6,4 km/h
25.08.2009 21:00 21,7 C 62 % 1013,0 hPa 0,0 l/m 0,3 km/h N 14,0 C 21,7 C 4,0 km/h
25.08.2009 22:00 19,0 C 73 % 1013,1 hPa 0,0 l/m 0,0 km/h N 13,9 C 19,0 C 1,2 km/h
25.08.2009 23:00 16,4 C 82 % 1013,3 hPa 0,0 l/m 0,0 km/h N 13,4 C 16,4 C 0,0 km/h
26.08.2009 00:00 15,5 C 86 % 1013,3 hPa 0,0 l/m 0,0 km/h N 13,1 C 15,5 C 0,4 km/h
26.08.2009 01:00 14,8 C 89 % 1013,2 hPa 0,0 l/m 0,0 km/h N 12,9 C 14,8 C 0,0 km/h
26.08.2009 02:00 14,4 C 91 % 1013,3 hPa 0,0 l/m 0,0 km/h N 12,9 C 14,4 C 0,8 km/h
26.08.2009 03:00 14,6 C 90 % 1013,9 hPa 0,0 l/m 0,0 km/h N 13,0 C 14,6 C 0,8 km/h
26.08.2009 04:00 14,6 C 91 % 1014,3 hPa 0,0 l/m 0,0 km/h N 13,1 C 14,6 C 0,8 km/h
26.08.2009 05:00 14,7 C 90 % 1014,8 hPa 0,0 l/m 0,1 km/h N 13,0 C 14,7 C 1,6 km/h
26.08.2009 06:00 14,2 C 91 % 1015,2 hPa 0,0 l/m 0,0 km/h N 12,8 C 14,2 C 1,6 km/h
26.08.2009 07:00 15,6 C 91 % 1015,5 hPa 0,0 l/m 0,0 km/h N 14,1 C 15,6 C 0,8 km/h
26.08.2009 08:00 18,6 C 82 % 1015,8 hPa 0,0 l/m 0,0 km/h N 15,5 C 18,6 C 0,0 km/h
26.08.2009 09:00 21,2 C 74 % 1015,8 hPa 0,0 l/m 0,0 km/h N 16,3 C 21,2 C 0,8 km/h
26.08.2009 10:00 23,2 C 68 % 1016,1 hPa 0,0 l/m 0,8 km/h SO 16,8 C 23,2 C 3,2 km/h
26.08.2009 11:00 24,7 C 64 % 1016,2 hPa 0,0 l/m 0,0 km/h N 17,4 C 24,7 C 4,8 km/h
26.08.2009 12:00 26,2 C 61 % 1015,9 hPa 0,0 l/m 0,0 km/h N 17,9 C 26,2 C 4,8 km/h
26.08.2009 13:00 27,1 C 59 % 1015,8 hPa 0,0 l/m 0,0 km/h S 18,2 C 27,1 C 4,8 km/h
26.08.2009 14:00 28,1 C 57 % 1015,4 hPa 0,0 l/m 1,3 km/h O 18,8 C 28,1 C 6,8 km/h
26.08.2009 15:00 28,1 C 56 % 1015,2 hPa 0,0 l/m 0,8 km/h N 18,6 C 28,1 C 4,0 km/h
26.08.2009 16:00 28,3 C 54 % 1015,0 hPa 0,0 l/m 0,7 km/h O 18,0 C 28,3 C 4,0 km/h
26.08.2009 17:00 27,9 C 55 % 1014,8 hPa 0,0 l/m 0,9 km/h N 17,9 C 27,9 C 4,0 km/h
26.08.2009 18:00 27,4 C 56 % 1014,7 hPa 0,0 l/m 0,4 km/h N 17,9 C 27,4 C 2,4 km/h
26.08.2009 19:00 24,9 C 68 % 1014,5 hPa 0,0 l/m 0,0 km/h N 18,4 C 24,9 C 0,4 km/h
26.08.2009 20:00 22,4 C 77 % 1014,8 hPa 0,0 l/m 0,0 km/h N 18,2 C 22,4 C 0,0 km/h
26.08.2009 21:00 21,2 C 82 % 1015,5 hPa 0,0 l/m 0,0 km/h N 18,0 C 21,2 C 0,4 km/h
26.08.2009 22:00 20,5 C 84 % 1015,6 hPa 0,0 l/m 0,0 km/h N 17,6 C 20,5 C 0,0 km/h
26.08.2009 23:00 20,8 C 81 % 1015,5 hPa 0,0 l/m 0,0 km/h N 17,3 C 20,8 C 2,0 km/h
27.08.2009 00:00 20,6 C 81 % 1015,6 hPa 0,0 l/m 0,2 km/h N 17,3 C 20,6 C 3,2 km/h
27.08.2009 01:00 21,1 C 80 % 1015,4 hPa 0,0 l/m 0,3 km/h N 17,4 C 21,1 C 4,0 km/h
27.08.2009 02:00 20,3 C 84 % 1015,0 hPa 0,0 l/m 0,1 km/h N 17,5 C 20,3 C 1,2 km/h
27.08.2009 03:00 20,2 C 85 % 1015,7 hPa 0,0 l/m 0,1 km/h N 17,6 C 20,2 C 1,2 km/h
27.08.2009 04:00 19,8 C 87 % 1015,9 hPa 0,0 l/m 0,0 km/h N 17,6 C 19,8 C 1,2 km/h
27.08.2009 05:00 19,3 C 89 % 1016,1 hPa 0,0 l/m 0,0 km/h N 17,4 C 19,3 C 0,8 km/h
27.08.2009 06:00 18,9 C 90 % 1016,4 hPa 0,0 l/m 0,0 km/h N 17,3 C 18,9 C 0,4 km/h
27.08.2009 07:00 19,8 C 88 % 1016,9 hPa 0,0 l/m 0,0 km/h N 17,7 C 19,8 C 0,0 km/h
27.08.2009 08:00 21,2 C 80 % 1017,3 hPa 0,0 l/m 0,0 km/h N 17,5 C 21,2 C 1,6 km/h
27.08.2009 09:00 23,4 C 68 % 1017,6 hPa 0,0 l/m 0,7 km/h SW 17,1 C 23,4 C 3,2 km/h
27.08.2009 10:00 24,7 C 67 % 1017,8 hPa 0,0 l/m 4,5 km/h NW 18,1 C 24,7 C 11,3 km/h
27.08.2009 11:00 26,2 C 63 % 1017,8 hPa 0,0 l/m 4,4 km/h W-SW 18,6 C 26,2 C 11,3 km/h
27.08.2009 12:00 27,1 C 61 % 1017,4 hPa 0,0 l/m 2,6 km/h N-NO 19,0 C 27,1 C 9,3 km/h
27.08.2009 13:00 28,1 C 60 % 1017,1 hPa 0,0 l/m 3,3 km/h N-NW 19,6 C 28,1 C 9,3 km/h
27.08.2009 14:00 27,9 C 60 % 1017,0 hPa 0,0 l/m 5,1 km/h N-NO 19,4 C 27,9 C 10,8 km/h
27.08.2009 15:00 28,5 C 58 % 1016,4 hPa 0,0 l/m 2,4 km/h N-NW 19,4 C 28,5 C 8,9 km/h
27.08.2009 16:00 28,8 C 52 % 1015,8 hPa 0,0 l/m 1,7 km/h N-NO 17,9 C 28,8 C 6,4 km/h
27.08.2009 17:00 28,6 C 52 % 1015,6 hPa 0,0 l/m 1,0 km/h N-NW 17,7 C 28,6 C 4,0 km/h
27.08.2009 18:00 27,4 C 57 % 1015,4 hPa 0,0 l/m 0,1 km/h N 18,0 C 27,4 C 1,6 km/h
27.08.2009 19:00 25,4 C 64 % 1015,3 hPa 0,0 l/m 0,0 km/h N 18,0 C 25,4 C 0,4 km/h
27.08.2009 20:00 23,2 C 72 % 1015,6 hPa 0,0 l/m 0,1 km/h N 17,8 C 23,2 C 1,2 km/h
27.08.2009 21:00 21,8 C 77 % 1015,9 hPa 0,0 l/m 0,1 km/h N 17,7 C 21,8 C 2,4 km/h
27.08.2009 22:00 21,3 C 79 % 1015,9 hPa 0,0 l/m 0,2 km/h N 17,4 C 21,3 C 2,8 km/h
27.08.2009 23:00 20,4 C 82 % 1015,7 hPa 0,0 l/m 0,1 km/h N 17,2 C 20,4 C 1,2 km/h
28.08.2009 00:00 19,0 C 86 % 1015,6 hPa 0,0 l/m 0,0 km/h N 16,6 C 19,0 C 0,0 km/h
28.08.2009 01:00 18,5 C 88 % 1015,3 hPa 0,0 l/m 0,1 km/h N 16,5 C 18,5 C 1,2 km/h
28.08.2009 02:00 18,7 C 85 % 1014,9 hPa 0,0 l/m 0,1 km/h N 16,2 C 18,7 C 2,8 km/h
28.08.2009 03:00 18,2 C 86 % 1014,6 hPa 0,0 l/m 0,2 km/h N 15,8 C 18,2 C 2,8 km/h
28.08.2009 04:00 17,8 C 86 % 1014,5 hPa 0,0 l/m 0,1 km/h N 15,4 C 17,8 C 2,4 km/h
28.08.2009 05:00 17,5 C 85 % 1014,3 hPa 0,0 l/m 0,1 km/h N 14,9 C 17,5 C 2,0 km/h
28.08.2009 06:00 17,2 C 85 % 1014,3 hPa 0,0 l/m 0,1 km/h N 14,6 C 17,2 C 2,8 km/h
28.08.2009 07:00 18,0 C 83 % 1014,5 hPa 0,0 l/m 0,2 km/h N 15,0 C 18,0 C 3,2 km/h
28.08.2009 08:00 19,9 C 80 % 1014,3 hPa 0,0 l/m 0,0 km/h N 16,3 C 19,9 C 0,0 km/h
28.08.2009 09:00 22,1 C 74 % 1014,2 hPa 0,0 l/m 0,0 km/h N 17,2 C 22,1 C 1,2 km/h
28.08.2009 10:00 24,3 C 66 % 1014,0 hPa 0,0 l/m 0,7 km/h N 17,5 C 24,3 C 5,2 km/h
28.08.2009 11:00 26,3 C 61 % 1013,6 hPa 0,0 l/m 0,6 km/h N 18,0 C 26,3 C 5,2 km/h
28.08.2009 12:00 28,3 C 55 % 1013,2 hPa 0,0 l/m 1,6 km/h SW 18,4 C 28,3 C 7,2 km/h
28.08.2009 13:00 29,3 C 51 % 1012,7 hPa 0,0 l/m 1,2 km/h S 18,0 C 29,3 C 6,4 km/h
28.08.2009 14:00 29,8 C 52 % 1012,0 hPa 0,0 l/m 0,9 km/h S-SO 18,9 C 29,8 C 4,4 km/h
28.08.2009 15:00 30,5 C 49 % 1011,5 hPa 0,0 l/m 0,9 km/h S 18,6 C 30,5 C 4,4 km/h
28.08.2009 16:00 30,7 C 48 % 1010,8 hPa 0,0 l/m 1,3 km/h O-NO 18,3 C 30,7 C 5,6 km/h
28.08.2009 17:00 29,8 C 55 % 1010,6 hPa 0,0 l/m 0,6 km/h N 19,5 C 29,8 C 5,2 km/h
28.08.2009 18:00 28,9 C 59 % 1010,5 hPa 0,0 l/m 0,6 km/h S-SW 19,8 C 28,9 C 4,0 km/h
28.08.2009 19:00 26,6 C 68 % 1010,5 hPa 0,0 l/m 0,0 km/h N 20,1 C 26,6 C 0,4 km/h
28.08.2009 20:00 25,2 C 72 % 1010,9 hPa 0,0 l/m 0,1 km/h N 19,6 C 25,2 C 2,8 km/h
28.08.2009 21:00 24,5 C 71 % 1011,1 hPa 0,0 l/m 0,3 km/h N 18,8 C 24,5 C 3,6 km/h
28.08.2009 22:00 24,6 C 67 % 1011,3 hPa 0,0 l/m 0,3 km/h N 17,9 C 24,6 C 4,8 km/h
28.08.2009 23:00 23,8 C 68 % 1011,4 hPa 0,0 l/m 0,3 km/h N 17,5 C 23,8 C 4,0 km/h
29.08.2009 00:00 23,4 C 69 % 1011,2 hPa 0,0 l/m 0,2 km/h N 17,3 C 23,4 C 2,8 km/h
29.08.2009 01:00 21,7 C 76 % 1011,0 hPa 0,0 l/m 0,0 km/h N 17,3 C 21,7 C 0,8 km/h
29.08.2009 02:00 21,8 C 77 % 1011,1 hPa 0,0 l/m 0,7 km/h O 17,4 C 21,8 C 3,6 km/h
29.08.2009 03:00 23,0 C 71 % 1011,2 hPa 0,0 l/m 4,9 km/h S-SW 17,5 C 23,0 C 21,3 km/h
29.08.2009 04:00 22,1 C 74 % 1011,6 hPa 0,0 l/m 4,0 km/h S-SO 17,2 C 22,1 C 18,5 km/h
29.08.2009 05:00 20,1 C 84 % 1013,1 hPa 6,3 l/m 2,7 km/h S 17,3 C 20,1 C 10,9 km/h
29.08.2009 06:00 19,1 C 90 % 1013,5 hPa 10,2 l/m 3,9 km/h N-NW 17,5 C 19,1 C 9,3 km/h
29.08.2009 07:00 17,5 C 90 % 1014,8 hPa 2,7 l/m 4,4 km/h NW 15,8 C 17,4 C 17,7 km/h
29.08.2009 08:00 16,5 C 89 % 1015,9 hPa 0,9 l/m 3,4 km/h NW 14,6 C 16,5 C 14,9 km/h
29.08.2009 09:00 16,0 C 88 % 1016,4 hPa 0,3 l/m 4,7 km/h NW 14,0 C 16,0 C 14,1 km/h
29.08.2009 10:00 15,1 C 87 % 1017,5 hPa 2,1 l/m 4,3 km/h N-NW 12,9 C 15,1 C 10,5 km/h
29.08.2009 11:00 15,5 C 89 % 1017,8 hPa 0,6 l/m 2,3 km/h N-NW 13,6 C 15,5 C 9,3 km/h
29.08.2009 12:00 16,2 C 84 % 1018,3 hPa 0,0 l/m 1,9 km/h W 13,4 C 16,2 C 10,1 km/h
29.08.2009 13:00 16,3 C 82 % 1018,5 hPa 0,0 l/m 2,9 km/h NW 13,1 C 16,3 C 10,1 km/h
29.08.2009 14:00 16,4 C 80 % 1018,4 hPa 0,0 l/m 1,5 km/h SO 12,9 C 16,4 C 9,3 km/h
29.08.2009 15:00 16,8 C 76 % 1018,3 hPa 0,0 l/m 1,5 km/h S 12,5 C 16,8 C 8,8 km/h
29.08.2009 16:00 16,3 C 78 % 1018,5 hPa 0,6 l/m 3,1 km/h W 12,5 C 16,3 C 18,9 km/h
29.08.2009 17:00 15,9 C 78 % 1018,6 hPa 0,0 l/m 2,1 km/h S 12,1 C 15,9 C 12,1 km/h
29.08.2009 18:00 16,0 C 74 % 1018,7 hPa 0,0 l/m 2,8 km/h SW 11,4 C 16,0 C 13,3 km/h
29.08.2009 19:00 15,4 C 77 % 1018,9 hPa 0,0 l/m 1,3 km/h S 11,3 C 15,4 C 12,1 km/h
29.08.2009 20:00 16,0 C 70 % 1019,3 hPa 0,0 l/m 2,9 km/h W-SW 10,4 C 16,0 C 15,7 km/h
29.08.2009 21:00 16,5 C 68 % 1019,5 hPa 0,0 l/m 4,5 km/h W-NW 10,7 C 16,5 C 19,7 km/h
29.08.2009 22:00 16,5 C 69 % 1020,1 hPa 0,0 l/m 4,1 km/h S 10,7 C 16,5 C 18,5 km/h
29.08.2009 23:00 16,3 C 69 % 1020,4 hPa 0,0 l/m 4,0 km/h SW 10,6 C 16,3 C 17,7 km/h
30.08.2009 00:00 16,1 C 69 % 1020,8 hPa 0,0 l/m 3,0 km/h SO 10,4 C 16,1 C 16,1 km/h
30.08.2009 01:00 15,7 C 70 % 1021,1 hPa 0,0 l/m 2,4 km/h NW 10,2 C 15,7 C 10,5 km/h
30.08.2009 02:00 15,1 C 70 % 1021,1 hPa 0,0 l/m 1,3 km/h NW 9,6 C 15,1 C 8,0 km/h
30.08.2009 03:00 14,4 C 72 % 1021,1 hPa 0,0 l/m 0,8 km/h N 9,3 C 14,4 C 4,0 km/h
30.08.2009 04:00 13,6 C 74 % 1021,5 hPa 0,0 l/m 0,2 km/h N 9,0 C 13,6 C 4,0 km/h
30.08.2009 05:00 12,9 C 76 % 1021,8 hPa 0,0 l/m 0,1 km/h N 8,8 C 12,9 C 1,6 km/h
30.08.2009 06:00 12,0 C 81 % 1022,3 hPa 0,0 l/m 0,1 km/h N 8,8 C 12,0 C 2,4 km/h
30.08.2009 07:00 13,4 C 76 % 1022,7 hPa 0,0 l/m 0,7 km/h N 9,2 C 13,4 C 4,8 km/h
30.08.2009 08:00 15,4 C 68 % 1022,8 hPa 0,0 l/m 0,5 km/h N 9,6 C 15,4 C 4,8 km/h
30.08.2009 09:00 16,8 C 61 % 1022,8 hPa 0,0 l/m 3,6 km/h N-NW 9,1 C 16,8 C 9,7 km/h
30.08.2009 10:00 18,0 C 59 % 1022,9 hPa 0,0 l/m 3,6 km/h N-NW 9,7 C 18,0 C 8,9 km/h
30.08.2009 11:00 19,2 C 53 % 1022,8 hPa 0,0 l/m 3,0 km/h N-NW 9,3 C 19,2 C 8,8 km/h
30.08.2009 12:00 20,2 C 48 % 1022,3 hPa 0,0 l/m 2,5 km/h N-NW 8,9 C 20,2 C 8,0 km/h
30.08.2009 13:00 20,8 C 48 % 1021,8 hPa 0,0 l/m 2,5 km/h N-NO 9,3 C 20,8 C 8,0 km/h
30.08.2009 14:00 21,3 C 45 % 1021,3 hPa 0,0 l/m 1,7 km/h N-NO 8,9 C 21,3 C 6,8 km/h
30.08.2009 15:00 21,0 C 45 % 1020,9 hPa 0,0 l/m 2,3 km/h N-NO 8,7 C 21,0 C 7,2 km/h
30.08.2009 16:00 21,2 C 44 % 1020,5 hPa 0,0 l/m 2,0 km/h N 8,4 C 21,2 C 6,8 km/h
30.08.2009 17:00 20,7 C 47 % 1020,5 hPa 0,0 l/m 0,3 km/h N 8,8 C 20,7 C 2,8 km/h
30.08.2009 18:00 19,8 C 49 % 1020,3 hPa 0,0 l/m 0,4 km/h N 8,7 C 19,8 C 2,8 km/h
30.08.2009 19:00 18,0 C 58 % 1020,0 hPa 0,0 l/m 0,0 km/h N 9,4 C 18,0 C 1,2 km/h
30.08.2009 20:00 15,1 C 73 % 1020,7 hPa 0,0 l/m 0,0 km/h N 10,2 C 15,1 C 0,4 km/h
30.08.2009 21:00 13,9 C 78 % 1021,1 hPa 0,0 l/m 0,0 km/h N 10,1 C 13,9 C 0,4 km/h
30.08.2009 22:00 12,8 C 80 % 1021,4 hPa 0,0 l/m 0,0 km/h N 9,4 C 12,8 C 0,4 km/h
30.08.2009 23:00 12,7 C 80 % 1021,8 hPa 0,0 l/m 0,0 km/h N 9,3 C 12,7 C 2,0 km/h
Min-Datum _ 30.08.09 25.08.09 28.08.09 - 24.08.09 - 30.08.09 30.08.09 24.08.09
_ Min-Zeit 06:15 16:15 19:00 - 00:15 - 16:15 06:00 03:45
Minimum _ 11,6 C 40 % 1010,3 hPa - 0,0 km/h - 7,4 C 11,6 C 0,0 km/h
Max-Datum _ 28.08.09 25.08.09 30.08.09 29.08.09 29.08.09 - 28.08.09 28.08.09 29.08.09
_ Max-Zeit 16:00 06:45 10:15 06:15 07:15 - 17:45 16:45 07:15
Maximum _ 31,4 C 93 % 1023,0 hPa 10,2 l/m 7,6 km/h
NW
- 21,0 C 31,2 C 25,7 km/h
N-NW
Durchschnitt _ 20,3 C 71 % 1015,9 hPa #23,7 l/m 1,1 km/h N-NW 14,4 C 20,3 C 5,5 km/h